Terminal Aerodrome Forecast
Issued by NWS

Current Version | Previous Version | Text Only | Print | Product List | Glossary On
Versions: 1 2 3 4 5 6 7 8 9 10 11 12 13 14 15
000
FTUS45 KGJT 281130
TAFCNY
TAF
KCNY 281130Z 2812/2912 27010KT P6SM SCT100
     FM282000 31010KT P6SM SCT120
     FM290500 35009KT P6SM BKN090=

USA.gov is the U.S. government's official web portal to all federal, state and local government web resources and services.